Nearby METAR Reports

 

KFRG - , , USA
Distance from station: SSW 12mi, 20km
Updated: 06/19/2017 10:53am
NOT Current
Few Clouds
Few Clouds
 Wind from SSW
Wind: SSW 17 mph , 28 km/h
Temperature: 75°F , 24°C
Dew Point: 72°F , 22°C
Humidity: 89%
Barometer: 29.87 inHg , 1011.5 hPa
Clouds: Few Clouds
Visibility: 10 miles , 16 km
Cloud details: Few Clouds 1000 ft
2017/06/19 14:53 KFRG 191453Z 21015KT 10SM FEW010 24/22 A2987 RMK AO2 SLP115 T02440217 58002
KISP - , , USA
Distance from station: ESE 14mi, 23km
Updated: 06/26/2017 12:56am
Overcast
Overcast
 Wind from WNW
Wind: WNW 10 mph , 17 km/h
Temperature: 72°F , 22°C
Dew Point: 63°F , 17°C
Humidity: 73%
Barometer: 29.96 inHg , 1014.6 hPa
Clouds: Overcast
Visibility: 10 miles , 16 km
Cloud details: Mostly Cloudy 10000 ft
Overcast 12000 ft
2017/06/26 04:56 KISP 260456Z AUTO 29009KT 10SM BKN100 OVC120 22/17 A2996 RMK AO2 SLP142 T02170172 402780178
 
KBDR - , , USA
Distance from station: NNE 21mi, 34km
Updated: 06/26/2017 12:52am
Few Clouds
Few Clouds
 Wind from NNW
Wind: NNW 14 mph , 22 km/h
Temperature: 70°F , 21°C
Dew Point: 55°F , 13°C
Humidity: 60%
Barometer: 29.97 inHg , 1014.9 hPa
Clouds: Few Clouds
Visibility: 10 miles , 16 km
Cloud details: Few Clouds 12000 ft
2017/06/26 04:52 KBDR 260452Z AUTO 34012KT 10SM FEW120 21/13 A2997 RMK AO2 SLP149 T02110128 403000194
KHPN - , , USA
Distance from station: WNW 22mi, 35km
Updated: 06/26/2017 12:56am
Clear
Clear
 Wind from NNW
Wind: NNW 15 mph , 24 km/h
Temperature: 66°F , 19°C
Dew Point: 52°F , 11°C
Humidity: 60%
Barometer: 29.98 inHg , 1015.2 hPa
Clouds: Clear
Visibility: 10 miles , 16 km
2017/06/26 04:56 KHPN 260456Z 34013KT 10SM CLR 19/11 A2998 RMK SLP148
 
KHWV - , , USA
Distance from station: ESE 26mi, 41km
Updated: 06/26/2017 12:56am
Overcast
Overcast
 Wind from SW
Wind: SW 3 mph , 6 km/h
Temperature: 72°F , 22°C
Dew Point: 64°F , 18°C
Humidity: 78%
Barometer: 29.96 inHg , 1014.6 hPa
Clouds: Overcast
Visibility: 10 miles , 16 km
Cloud details: Overcast 9000 ft
2017/06/26 04:56 KHWV 260456Z AUTO 23003KT 10SM OVC090 22/18 A2996 RMK AO2 SLP143 T02170183 402670172
KJFK - , , USA
Distance from station: SW 29mi, 46km
Updated: 06/26/2017 12:51am
Partly Cloudy
Partly Cloudy
 Wind from NNW
Wind: NNW 21 mph , 33 km/h, Gust: 29 mph , 46 km/h
Temperature: 73°F , 23°C
Dew Point: 52°F , 11°C
Humidity: 47%
Barometer: 29.99 inHg , 1015.6 hPa
Clouds: Partly Cloudy
Visibility: 10 miles , 16 km
Cloud details: Partly Cloudy 10000 ft
2017/06/26 04:51 KJFK 260451Z 33018G25KT 10SM SCT100 23/11 A2999 RMK AO2 SLP154 T02330111 402780206
 
KLGA - , , USA
Distance from station: WSW 29mi, 47km
Updated: 06/26/2017 12:51am
Few Clouds
Few Clouds
 Wind from NNW
Wind: NNW 14 mph , 22 km/h, Gust: 23 mph , 37 km/h
Temperature: 72°F , 22°C
Dew Point: 54°F , 12°C
Humidity: 53%
Barometer: 29.98 inHg , 1015.2 hPa
Clouds: Few Clouds
Visibility: 10 miles , 16 km
Cloud details: Few Clouds 11000 ft
2017/06/26 04:51 KLGA 260451Z 34012G20KT 10SM FEW110 22/12 A2998 RMK AO2 PK WND 28029/0410 SLP152 T02220117 402890211